sensor_id;sensor_type;location;lat;lon;timestamp;temperature;humidity
24636;DHT22;12772;49.794;10.024;2023-04-21T00:03:36;11.40;63.40
24636;DHT22;12772;49.794;10.024;2023-04-21T00:07:39;11.30;63.20
24636;DHT22;12772;49.794;10.024;2023-04-21T00:11:41;11.30;63.20
24636;DHT22;12772;49.794;10.024;2023-04-21T00:15:43;10.90;62.90
24636;DHT22;12772;49.794;10.024;2023-04-21T00:19:45;11.30;63.80
24636;DHT22;12772;49.794;10.024;2023-04-21T00:23:48;11.40;63.40
24636;DHT22;12772;49.794;10.024;2023-04-21T00:27:50;11.40;63.40
24636;DHT22;12772;49.794;10.024;2023-04-21T00:31:52;11.30;63.40
24636;DHT22;12772;49.794;10.024;2023-04-21T00:35:54;11.30;63.40
24636;DHT22;12772;49.794;10.024;2023-04-21T00:39:58;11.30;63.40
24636;DHT22;12772;49.794;10.024;2023-04-21T00:44:05;11.30;63.40
24636;DHT22;12772;49.794;10.024;2023-04-21T00:48:07;11.30;63.40
24636;DHT22;12772;49.794;10.024;2023-04-21T00:52:10;10.90;63.00
24636;DHT22;12772;49.794;10.024;2023-04-21T00:56:12;11.30;63.40
24636;DHT22;12772;49.794;10.024;2023-04-21T01:00:15;11.20;63.10
24636;DHT22;12772;49.794;10.024;2023-04-21T01:04:17;11.20;63.20
24636;DHT22;12772;49.794;10.024;2023-04-21T01:08:19;11.30;63.40
24636;DHT22;12772;49.794;10.024;2023-04-21T01:12:21;11.30;63.50
24636;DHT22;12772;49.794;10.024;2023-04-21T01:16:23;11.20;63.80
24636;DHT22;12772;49.794;10.024;2023-04-21T01:20:26;11.30;64.10
24636;DHT22;12772;49.794;10.024;2023-04-21T01:24:40;11.30;64.10
24636;DHT22;12772;49.794;10.024;2023-04-21T01:28:42;11.30;63.90
24636;DHT22;12772;49.794;10.024;2023-04-21T01:32:44;11.30;64.00
24636;DHT22;12772;49.794;10.024;2023-04-21T01:36:46;11.30;64.00
24636;DHT22;12772;49.794;10.024;2023-04-21T01:40:50;11.40;64.60
24636;DHT22;12772;49.794;10.024;2023-04-21T01:44:53;11.10;63.80
24636;DHT22;12772;49.794;10.024;2023-04-21T01:48:55;11.00;63.70
24636;DHT22;12772;49.794;10.024;2023-04-21T01:52:57;11.40;64.50
24636;DHT22;12772;49.794;10.024;2023-04-21T01:56:59;11.40;63.90
24636;DHT22;12772;49.794;10.024;2023-04-21T02:01:02;11.50;63.90
24636;DHT22;12772;49.794;10.024;2023-04-21T02:05:04;11.10;64.00
24636;DHT22;12772;49.794;10.024;2023-04-21T02:09:06;11.40;64.20
24636;DHT22;12772;49.794;10.024;2023-04-21T02:13:09;11.20;64.10
24636;DHT22;12772;49.794;10.024;2023-04-21T02:17:11;11.30;64.40
24636;DHT22;12772;49.794;10.024;2023-04-21T02:21:14;11.30;64.40
24636;DHT22;12772;49.794;10.024;2023-04-21T02:25:16;10.90;64.20
24636;DHT22;12772;49.794;10.024;2023-04-21T02:29:19;11.30;64.30
24636;DHT22;12772;49.794;10.024;2023-04-21T02:33:21;11.30;64.40
24636;DHT22;12772;49.794;10.024;2023-04-21T02:37:24;11.30;64.50
24636;DHT22;12772;49.794;10.024;2023-04-21T02:41:26;11.30;64.70
24636;DHT22;12772;49.794;10.024;2023-04-21T02:45:28;11.30;64.80
24636;DHT22;12772;49.794;10.024;2023-04-21T02:49:30;10.90;64.40
24636;DHT22;12772;49.794;10.024;2023-04-21T02:53:33;11.30;64.70
24636;DHT22;12772;49.794;10.024;2023-04-21T02:57:35;10.90;64.40
24636;DHT22;12772;49.794;10.024;2023-04-21T03:01:37;11.30;64.80
24636;DHT22;12772;49.794;10.024;2023-04-21T03:05:39;11.40;64.90
24636;DHT22;12772;49.794;10.024;2023-04-21T03:09:41;11.40;64.60
24636;DHT22;12772;49.794;10.024;2023-04-21T03:13:43;11.40;64.50
24636;DHT22;12772;49.794;10.024;2023-04-21T03:17:45;11.50;64.30
24636;DHT22;12772;49.794;10.024;2023-04-21T03:21:48;11.40;64.10
24636;DHT22;12772;49.794;10.024;2023-04-21T03:25:50;11.40;64.10
24636;DHT22;12772;49.794;10.024;2023-04-21T03:29:52;11.40;64.20
24636;DHT22;12772;49.794;10.024;2023-04-21T03:33:54;11.40;64.30
24636;DHT22;12772;49.794;10.024;2023-04-21T03:37:56;11.40;64.30
24636;DHT22;12772;49.794;10.024;2023-04-21T03:41:58;11.40;64.30
24636;DHT22;12772;49.794;10.024;2023-04-21T03:46:01;11.30;64.20
24636;DHT22;12772;49.794;10.024;2023-04-21T03:50:04;11.00;64.20
24636;DHT22;12772;49.794;10.024;2023-04-21T03:54:06;11.40;64.60
24636;DHT22;12772;49.794;10.024;2023-04-21T03:58:08;11.40;64.70
24636;DHT22;12772;49.794;10.024;2023-04-21T04:02:11;11.40;64.60
24636;DHT22;12772;49.794;10.024;2023-04-21T04:06:13;11.40;64.60
24636;DHT22;12772;49.794;10.024;2023-04-21T04:10:15;11.50;64.60
24636;DHT22;12772;49.794;10.024;2023-04-21T04:14:18;11.50;64.60
24636;DHT22;12772;49.794;10.024;2023-04-21T04:18:20;11.50;64.40
24636;DHT22;12772;49.794;10.024;2023-04-21T04:22:22;11.50;64.80
24636;DHT22;12772;49.794;10.024;2023-04-21T04:26:24;11.50;64.40
24636;DHT22;12772;49.794;10.024;2023-04-21T04:30:27;11.50;64.10
24636;DHT22;12772;49.794;10.024;2023-04-21T04:34:30;11.00;63.60
24636;DHT22;12772;49.794;10.024;2023-04-21T04:38:32;11.40;64.00
24636;DHT22;12772;49.794;10.024;2023-04-21T04:42:37;11.40;63.90
24636;DHT22;12772;49.794;10.024;2023-04-21T04:46:40;11.40;63.90
24636;DHT22;12772;49.794;10.024;2023-04-21T04:50:42;11.40;64.00
24636;DHT22;12772;49.794;10.024;2023-04-21T04:54:45;11.30;63.90
24636;DHT22;12772;49.794;10.024;2023-04-21T04:58:47;11.40;64.20
24636;DHT22;12772;49.794;10.024;2023-04-21T05:02:49;11.40;64.20
24636;DHT22;12772;49.794;10.024;2023-04-21T05:06:51;11.40;64.30
24636;DHT22;12772;49.794;10.024;2023-04-21T05:10:53;11.40;64.30
24636;DHT22;12772;49.794;10.024;2023-04-21T05:14:56;11.80;64.60
24636;DHT22;12772;49.794;10.024;2023-04-21T05:19:00;11.50;64.40
24636;DHT22;12772;49.794;10.024;2023-04-21T05:23:03;11.20;64.00
24636;DHT22;12772;49.794;10.024;2023-04-21T05:27:05;11.60;64.40
24636;DHT22;12772;49.794;10.024;2023-04-21T05:31:07;11.60;64.60
24636;DHT22;12772;49.794;10.024;2023-04-21T05:35:09;11.60;64.80
24636;DHT22;12772;49.794;10.024;2023-04-21T05:39:11;11.60;64.80
24636;DHT22;12772;49.794;10.024;2023-04-21T05:43:13;11.20;64.60
24636;DHT22;12772;49.794;10.024;2023-04-21T05:47:15;11.70;64.90
24636;DHT22;12772;49.794;10.024;2023-04-21T05:51:17;11.70;65.00
24636;DHT22;12772;49.794;10.024;2023-04-21T05:55:19;11.70;64.90
24636;DHT22;12772;49.794;10.024;2023-04-21T05:59:22;11.70;64.80
24636;DHT22;12772;49.794;10.024;2023-04-21T06:03:26;11.80;64.80
24636;DHT22;12772;49.794;10.024;2023-04-21T06:07:28;11.80;64.70
24636;DHT22;12772;49.794;10.024;2023-04-21T06:11:30;11.60;64.00
24636;DHT22;12772;49.794;10.024;2023-04-21T06:15:33;11.70;64.00
24636;DHT22;12772;49.794;10.024;2023-04-21T06:19:38;11.90;64.00
24636;DHT22;12772;49.794;10.024;2023-04-21T06:23:40;11.90;63.90
24636;DHT22;12772;49.794;10.024;2023-04-21T06:27:42;12.00;63.90
24636;DHT22;12772;49.794;10.024;2023-04-21T06:31:45;12.10;64.00
24636;DHT22;12772;49.794;10.024;2023-04-21T06:35:47;12.00;63.90
24636;DHT22;12772;49.794;10.024;2023-04-21T06:39:49;11.60;63.60
24636;DHT22;12772;49.794;10.024;2023-04-21T06:43:51;12.00;63.90
24636;DHT22;12772;49.794;10.024;2023-04-21T06:47:53;11.70;63.70
24636;DHT22;12772;49.794;10.024;2023-04-21T06:51:55;12.10;64.10
24636;DHT22;12772;49.794;10.024;2023-04-21T06:55:58;12.20;64.30
24636;DHT22;12772;49.794;10.024;2023-04-21T07:00:00;12.10;64.10
24636;DHT22;12772;49.794;10.024;2023-04-21T07:04:02;12.30;64.10
24636;DHT22;12772;49.794;10.024;2023-04-21T07:08:05;12.50;64.30
24636;DHT22;12772;49.794;10.024;2023-04-21T07:12:07;12.30;64.10
24636;DHT22;12772;49.794;10.024;2023-04-21T07:16:10;12.10;64.00
24636;DHT22;12772;49.794;10.024;2023-04-21T07:20:12;12.60;64.40
24636;DHT22;12772;49.794;10.024;2023-04-21T07:24:14;12.70;64.60
24636;DHT22;12772;49.794;10.024;2023-04-21T07:28:16;12.90;64.80
24636;DHT22;12772;49.794;10.024;2023-04-21T07:32:18;13.00;64.30
24636;DHT22;12772;49.794;10.024;2023-04-21T07:36:20;13.10;63.70
24636;DHT22;12772;49.794;10.024;2023-04-21T07:40:22;13.20;63.50
24636;DHT22;12772;49.794;10.024;2023-04-21T07:44:24;13.30;63.20
24636;DHT22;12772;49.794;10.024;2023-04-21T07:48:29;13.40;62.90
24636;DHT22;12772;49.794;10.024;2023-04-21T07:52:31;13.50;62.10
24636;DHT22;12772;49.794;10.024;2023-04-21T07:56:33;13.60;61.10
24636;DHT22;12772;49.794;10.024;2023-04-21T08:00:35;13.70;60.80
24636;DHT22;12772;49.794;10.024;2023-04-21T08:04:37;13.80;60.90
24636;DHT22;12772;49.794;10.024;2023-04-21T08:08:39;13.90;60.90
24636;DHT22;12772;49.794;10.024;2023-04-21T08:12:41;14.20;60.80
24636;DHT22;12772;49.794;10.024;2023-04-21T08:16:43;14.10;60.30
24636;DHT22;12772;49.794;10.024;2023-04-21T08:20:46;14.20;59.60
24636;DHT22;12772;49.794;10.024;2023-04-21T08:24:48;14.30;59.40
24636;DHT22;12772;49.794;10.024;2023-04-21T08:28:51;14.40;60.00
24636;DHT22;12772;49.794;10.024;2023-04-21T08:32:53;14.50;58.80
24636;DHT22;12772;49.794;10.024;2023-04-21T08:36:55;14.60;58.60
24636;DHT22;12772;49.794;10.024;2023-04-21T08:41:01;14.80;57.70
24636;DHT22;12772;49.794;10.024;2023-04-21T08:45:04;15.00;57.10
24636;DHT22;12772;49.794;10.024;2023-04-21T08:49:08;15.10;56.60
24636;DHT22;12772;49.794;10.024;2023-04-21T08:53:11;15.20;54.30
24636;DHT22;12772;49.794;10.024;2023-04-21T08:57:14;15.40;54.20
24636;DHT22;12772;49.794;10.024;2023-04-21T09:01:16;15.80;53.30
24636;DHT22;12772;49.794;10.024;2023-04-21T09:05:36;15.60;51.70
24636;DHT22;12772;49.794;10.024;2023-04-21T09:13:56;15.80;51.60
24636;DHT22;12772;49.794;10.024;2023-04-21T09:17:58;15.80;50.80
24636;DHT22;12772;49.794;10.024;2023-04-21T09:22:01;15.80;50.30
24636;DHT22;12772;49.794;10.024;2023-04-21T09:26:04;15.80;50.30
24636;DHT22;12772;49.794;10.024;2023-04-21T09:30:07;15.80;50.30
24636;DHT22;12772;49.794;10.024;2023-04-21T09:34:18;15.90;50.40
24636;DHT22;12772;49.794;10.024;2023-04-21T09:38:21;16.00;50.50
24636;DHT22;12772;49.794;10.024;2023-04-21T09:42:32;16.10;50.70
24636;DHT22;12772;49.794;10.024;2023-04-21T09:46:35;16.10;50.00
24636;DHT22;12772;49.794;10.024;2023-04-21T09:50:38;16.20;49.10
24636;DHT22;12772;49.794;10.024;2023-04-21T09:54:47;16.40;47.40
24636;DHT22;12772;49.794;10.024;2023-04-21T09:58:57;16.50;47.60
24636;DHT22;12772;49.794;10.024;2023-04-21T10:03:03;16.70;47.80
24636;DHT22;12772;49.794;10.024;2023-04-21T10:07:10;17.00;46.60
24636;DHT22;12772;49.794;10.024;2023-04-21T10:11:13;17.20;44.90
24636;DHT22;12772;49.794;10.024;2023-04-21T10:15:34;17.20;44.60
24636;DHT22;12772;49.794;10.024;2023-04-21T10:19:37;17.30;44.00
24636;DHT22;12772;49.794;10.024;2023-04-21T10:23:49;17.30;43.50
24636;DHT22;12772;49.794;10.024;2023-04-21T10:27:52;17.30;44.00
24636;DHT22;12772;49.794;10.024;2023-04-21T10:31:54;17.40;44.00
24636;DHT22;12772;49.794;10.024;2023-04-21T10:40:00;17.60;43.80
24636;DHT22;12772;49.794;10.024;2023-04-21T10:48:12;17.90;43.30
24636;DHT22;12772;49.794;10.024;2023-04-21T10:52:14;17.90;42.90
24636;DHT22;12772;49.794;10.024;2023-04-21T10:56:17;18.00;43.70
24636;DHT22;12772;49.794;10.024;2023-04-21T11:00:22;18.30;44.00
24636;DHT22;12772;49.794;10.024;2023-04-21T11:04:25;18.50;43.40
24636;DHT22;12772;49.794;10.024;2023-04-21T11:08:27;18.80;42.60
24636;DHT22;12772;49.794;10.024;2023-04-21T11:12:32;18.90;40.10
24636;DHT22;12772;49.794;10.024;2023-04-21T11:16:34;19.00;40.10
24636;DHT22;12772;49.794;10.024;2023-04-21T11:20:40;18.90;40.00
24636;DHT22;12772;49.794;10.024;2023-04-21T11:24:48;19.00;40.10
24636;DHT22;12772;49.794;10.024;2023-04-21T11:28:50;19.10;40.20
24636;DHT22;12772;49.794;10.024;2023-04-21T11:32:53;19.30;40.40
24636;DHT22;12772;49.794;10.024;2023-04-21T11:36:55;19.50;40.60
24636;DHT22;12772;49.794;10.024;2023-04-21T11:40:58;19.60;39.50
24636;DHT22;12772;49.794;10.024;2023-04-21T11:45:00;19.70;39.40
24636;DHT22;12772;49.794;10.024;2023-04-21T11:49:09;19.90;39.70
24636;DHT22;12772;49.794;10.024;2023-04-21T11:53:13;20.00;38.70
24636;DHT22;12772;49.794;10.024;2023-04-21T11:57:19;20.20;37.60
24636;DHT22;12772;49.794;10.024;2023-04-21T12:01:21;20.30;38.20
24636;DHT22;12772;49.794;10.024;2023-04-21T12:05:23;20.50;37.80
24636;DHT22;12772;49.794;10.024;2023-04-21T12:09:27;20.90;38.00
24636;DHT22;12772;49.794;10.024;2023-04-21T12:13:29;21.10;36.80
24636;DHT22;12772;49.794;10.024;2023-04-21T12:17:45;21.40;36.10
24636;DHT22;12772;49.794;10.024;2023-04-21T12:21:52;21.50;34.60
24636;DHT22;12772;49.794;10.024;2023-04-21T12:25:55;21.60;34.80
24636;DHT22;12772;49.794;10.024;2023-04-21T12:29:58;21.80;34.40
24636;DHT22;12772;49.794;10.024;2023-04-21T12:34:00;21.90;33.50
24636;DHT22;12772;49.794;10.024;2023-04-21T12:38:02;22.00;31.60
24636;DHT22;12772;49.794;10.024;2023-04-21T12:42:04;22.10;32.00
24636;DHT22;12772;49.794;10.024;2023-04-21T12:46:07;22.20;30.70
24636;DHT22;12772;49.794;10.024;2023-04-21T12:50:09;22.30;29.60
24636;DHT22;12772;49.794;10.024;2023-04-21T12:54:13;22.30;29.60
24636;DHT22;12772;49.794;10.024;2023-04-21T12:58:15;22.40;28.60
24636;DHT22;12772;49.794;10.024;2023-04-21T13:02:17;22.40;29.20
24636;DHT22;12772;49.794;10.024;2023-04-21T13:06:19;22.80;29.30
24636;DHT22;12772;49.794;10.024;2023-04-21T13:10:21;22.60;28.80
24636;DHT22;12772;49.794;10.024;2023-04-21T13:14:25;22.60;28.80
24636;DHT22;12772;49.794;10.024;2023-04-21T13:18:27;22.50;28.70
24636;DHT22;12772;49.794;10.024;2023-04-21T13:22:29;22.60;29.40
24636;DHT22;12772;49.794;10.024;2023-04-21T13:26:31;22.70;29.10
24636;DHT22;12772;49.794;10.024;2023-04-21T13:30:35;22.80;28.80
24636;DHT22;12772;49.794;10.024;2023-04-21T13:34:37;22.80;28.30
24636;DHT22;12772;49.794;10.024;2023-04-21T13:38:39;22.80;28.20
24636;DHT22;12772;49.794;10.024;2023-04-21T13:42:41;23.00;28.30
24636;DHT22;12772;49.794;10.024;2023-04-21T13:46:43;23.00;28.10
24636;DHT22;12772;49.794;10.024;2023-04-21T13:50:46;23.20;28.50
24636;DHT22;12772;49.794;10.024;2023-04-21T13:54:50;23.10;28.30
24636;DHT22;12772;49.794;10.024;2023-04-21T13:58:53;23.10;27.50
24636;DHT22;12772;49.794;10.024;2023-04-21T14:02:55;23.10;27.50
24636;DHT22;12772;49.794;10.024;2023-04-21T14:06:57;23.00;27.90
24636;DHT22;12772;49.794;10.024;2023-04-21T14:10:59;23.10;27.90
24636;DHT22;12772;49.794;10.024;2023-04-21T14:15:02;23.10;28.00
24636;DHT22;12772;49.794;10.024;2023-04-21T14:19:04;23.20;28.10
24636;DHT22;12772;49.794;10.024;2023-04-21T14:23:07;23.20;27.50
24636;DHT22;12772;49.794;10.024;2023-04-21T14:27:09;23.20;26.80
24636;DHT22;12772;49.794;10.024;2023-04-21T14:31:11;23.10;27.60
24636;DHT22;12772;49.794;10.024;2023-04-21T14:35:13;23.10;27.00
24636;DHT22;12772;49.794;10.024;2023-04-21T14:39:15;23.20;26.80
24636;DHT22;12772;49.794;10.024;2023-04-21T14:43:18;23.20;26.00
24636;DHT22;12772;49.794;10.024;2023-04-21T14:47:21;23.10;25.50
24636;DHT22;12772;49.794;10.024;2023-04-21T14:51:23;23.10;25.90
24636;DHT22;12772;49.794;10.024;2023-04-21T14:55:25;23.00;25.90
24636;DHT22;12772;49.794;10.024;2023-04-21T14:59:27;23.00;25.50
24636;DHT22;12772;49.794;10.024;2023-04-21T15:03:29;22.90;25.50
24636;DHT22;12772;49.794;10.024;2023-04-21T15:07:31;22.80;25.50
24636;DHT22;12772;49.794;10.024;2023-04-21T15:11:33;22.80;25.70
24636;DHT22;12772;49.794;10.024;2023-04-21T15:15:35;22.70;25.60
24636;DHT22;12772;49.794;10.024;2023-04-21T15:19:37;22.70;26.10
24636;DHT22;12772;49.794;10.024;2023-04-21T15:23:40;22.70;25.30
24636;DHT22;12772;49.794;10.024;2023-04-21T15:27:42;22.70;25.50
24636;DHT22;12772;49.794;10.024;2023-04-21T15:31:44;22.60;26.00
24636;DHT22;12772;49.794;10.024;2023-04-21T15:35:46;22.70;26.10
24636;DHT22;12772;49.794;10.024;2023-04-21T15:39:48;22.70;25.30
24636;DHT22;12772;49.794;10.024;2023-04-21T15:43:50;22.90;25.70
24636;DHT22;12772;49.794;10.024;2023-04-21T15:47:53;22.70;24.80
24636;DHT22;12772;49.794;10.024;2023-04-21T15:51:56;22.70;24.20
24636;DHT22;12772;49.794;10.024;2023-04-21T15:55:58;22.70;24.20
24636;DHT22;12772;49.794;10.024;2023-04-21T16:00:00;22.70;24.30
24636;DHT22;12772;49.794;10.024;2023-04-21T16:04:02;22.70;24.20
24636;DHT22;12772;49.794;10.024;2023-04-21T16:08:04;22.70;24.20
24636;DHT22;12772;49.794;10.024;2023-04-21T16:12:07;22.60;24.10
24636;DHT22;12772;49.794;10.024;2023-04-21T16:16:10;22.50;24.00
24636;DHT22;12772;49.794;10.024;2023-04-21T16:20:12;22.40;24.00
24636;DHT22;12772;49.794;10.024;2023-04-21T16:24:14;22.40;24.00
24636;DHT22;12772;49.794;10.024;2023-04-21T16:28:16;22.40;23.90
24636;DHT22;12772;49.794;10.024;2023-04-21T16:32:21;22.40;24.10
24636;DHT22;12772;49.794;10.024;2023-04-21T16:36:23;22.60;24.40
24636;DHT22;12772;49.794;10.024;2023-04-21T16:40:25;22.40;24.30
24636;DHT22;12772;49.794;10.024;2023-04-21T16:44:27;22.30;24.50
24636;DHT22;12772;49.794;10.024;2023-04-21T16:48:29;22.30;24.10
24636;DHT22;12772;49.794;10.024;2023-04-21T16:52:31;22.40;25.00
24636;DHT22;12772;49.794;10.024;2023-04-21T16:56:33;22.20;25.00
24636;DHT22;12772;49.794;10.024;2023-04-21T17:00:36;22.20;25.40
24636;DHT22;12772;49.794;10.024;2023-04-21T17:04:38;22.10;25.40
24636;DHT22;12772;49.794;10.024;2023-04-21T17:08:40;21.60;25.30
24636;DHT22;12772;49.794;10.024;2023-04-21T17:12:42;22.00;25.90
24636;DHT22;12772;49.794;10.024;2023-04-21T17:16:44;22.00;26.30
24636;DHT22;12772;49.794;10.024;2023-04-21T17:20:46;21.80;26.50
24636;DHT22;12772;49.794;10.024;2023-04-21T17:24:48;21.80;26.90
24636;DHT22;12772;49.794;10.024;2023-04-21T17:28:50;21.70;27.20
24636;DHT22;12772;49.794;10.024;2023-04-21T17:32:53;21.60;27.50
24636;DHT22;12772;49.794;10.024;2023-04-21T17:36:55;21.50;27.60
24636;DHT22;12772;49.794;10.024;2023-04-21T17:40:57;21.50;27.80
24636;DHT22;12772;49.794;10.024;2023-04-21T17:45:01;21.40;28.20
24636;DHT22;12772;49.794;10.024;2023-04-21T17:49:05;21.30;28.70
24636;DHT22;12772;49.794;10.024;2023-04-21T17:53:07;21.20;28.70
24636;DHT22;12772;49.794;10.024;2023-04-21T17:57:09;21.10;28.90
24636;DHT22;12772;49.794;10.024;2023-04-21T18:01:11;21.00;29.10
24636;DHT22;12772;49.794;10.024;2023-04-21T18:05:13;21.00;29.30
24636;DHT22;12772;49.794;10.024;2023-04-21T18:09:17;20.90;29.40
24636;DHT22;12772;49.794;10.024;2023-04-21T18:13:20;20.80;29.70
24636;DHT22;12772;49.794;10.024;2023-04-21T18:17:22;20.80;29.90
24636;DHT22;12772;49.794;10.024;2023-04-21T18:21:24;20.70;30.10
24636;DHT22;12772;49.794;10.024;2023-04-21T18:25:27;20.50;30.20
24636;DHT22;12772;49.794;10.024;2023-04-21T18:29:30;20.50;30.50
24636;DHT22;12772;49.794;10.024;2023-04-21T18:33:32;20.30;30.60
24636;DHT22;12772;49.794;10.024;2023-04-21T18:37:34;20.20;30.80
24636;DHT22;12772;49.794;10.024;2023-04-21T18:41:36;20.00;31.10
24636;DHT22;12772;49.794;10.024;2023-04-21T18:45:39;20.00;31.60
24636;DHT22;12772;49.794;10.024;2023-04-21T18:49:41;20.00;31.90
24636;DHT22;12772;49.794;10.024;2023-04-21T18:53:44;19.70;32.20
24636;DHT22;12772;49.794;10.024;2023-04-21T18:57:47;19.60;32.40
24636;DHT22;12772;49.794;10.024;2023-04-21T19:01:49;19.50;32.40
24636;DHT22;12772;49.794;10.024;2023-04-21T19:05:51;19.30;32.50
24636;DHT22;12772;49.794;10.024;2023-04-21T19:09:53;19.20;32.60
24636;DHT22;12772;49.794;10.024;2023-04-21T19:13:55;19.10;32.90
24636;DHT22;12772;49.794;10.024;2023-04-21T19:17:57;18.90;32.90
24636;DHT22;12772;49.794;10.024;2023-04-21T19:21:59;18.80;32.80
24636;DHT22;12772;49.794;10.024;2023-04-21T19:26:03;18.70;32.70
24636;DHT22;12772;49.794;10.024;2023-04-21T19:30:06;18.60;32.90
24636;DHT22;12772;49.794;10.024;2023-04-21T19:34:09;18.50;33.00
24636;DHT22;12772;49.794;10.024;2023-04-21T19:38:11;18.40;33.10
24636;DHT22;12772;49.794;10.024;2023-04-21T19:42:13;18.30;33.40
24636;DHT22;12772;49.794;10.024;2023-04-21T19:46:15;18.10;33.80
24636;DHT22;12772;49.794;10.024;2023-04-21T19:50:17;18.00;34.20
24636;DHT22;12772;49.794;10.024;2023-04-21T19:54:20;17.90;34.60
24636;DHT22;12772;49.794;10.024;2023-04-21T19:58:22;17.80;34.70
24636;DHT22;12772;49.794;10.024;2023-04-21T20:02:24;17.80;34.90
24636;DHT22;12772;49.794;10.024;2023-04-21T20:06:28;17.80;35.00
24636;DHT22;12772;49.794;10.024;2023-04-21T20:10:30;17.80;35.20
24636;DHT22;12772;49.794;10.024;2023-04-21T20:14:32;17.70;35.60
24636;DHT22;12772;49.794;10.024;2023-04-21T20:18:34;17.70;35.90
24636;DHT22;12772;49.794;10.024;2023-04-21T20:22:37;17.60;36.00
24636;DHT22;12772;49.794;10.024;2023-04-21T20:26:40;17.50;36.00
24636;DHT22;12772;49.794;10.024;2023-04-21T20:30:42;17.40;36.30
24636;DHT22;12772;49.794;10.024;2023-04-21T20:34:46;17.30;36.50
24636;DHT22;12772;49.794;10.024;2023-04-21T20:38:48;17.20;36.90
24636;DHT22;12772;49.794;10.024;2023-04-21T20:42:50;17.20;37.20
24636;DHT22;12772;49.794;10.024;2023-04-21T20:46:53;17.10;37.40
24636;DHT22;12772;49.794;10.024;2023-04-21T20:50:55;17.00;37.80
24636;DHT22;12772;49.794;10.024;2023-04-21T20:54:57;17.20;38.10
24636;DHT22;12772;49.794;10.024;2023-04-21T20:58:59;16.80;37.60
24636;DHT22;12772;49.794;10.024;2023-04-21T21:03:02;16.70;37.60
24636;DHT22;12772;49.794;10.024;2023-04-21T21:07:09;16.60;38.10
24636;DHT22;12772;49.794;10.024;2023-04-21T21:11:11;16.50;38.50
24636;DHT22;12772;49.794;10.024;2023-04-21T21:15:13;16.50;38.90
24636;DHT22;12772;49.794;10.024;2023-04-21T21:19:15;16.40;39.10
24636;DHT22;12772;49.794;10.024;2023-04-21T21:23:17;16.40;39.50
24636;DHT22;12772;49.794;10.024;2023-04-21T21:27:19;16.30;39.60
24636;DHT22;12772;49.794;10.024;2023-04-21T21:31:22;16.30;39.50
24636;DHT22;12772;49.794;10.024;2023-04-21T21:35:25;16.30;39.50
24636;DHT22;12772;49.794;10.024;2023-04-21T21:39:27;16.20;39.60
24636;DHT22;12772;49.794;10.024;2023-04-21T21:43:29;16.10;39.80
24636;DHT22;12772;49.794;10.024;2023-04-21T21:47:33;16.00;39.80
24636;DHT22;12772;49.794;10.024;2023-04-21T21:51:35;16.60;40.60
24636;DHT22;12772;49.794;10.024;2023-04-21T21:55:37;16.20;40.40
24636;DHT22;12772;49.794;10.024;2023-04-21T21:59:39;15.90;40.30
24636;DHT22;12772;49.794;10.024;2023-04-21T22:03:42;15.90;40.50
24636;DHT22;12772;49.794;10.024;2023-04-21T22:07:44;15.80;40.50
24636;DHT22;12772;49.794;10.024;2023-04-21T22:11:46;15.80;40.70
24636;DHT22;12772;49.794;10.024;2023-04-21T22:15:48;15.70;40.70
24636;DHT22;12772;49.794;10.024;2023-04-21T22:19:50;15.70;40.90
24636;DHT22;12772;49.794;10.024;2023-04-21T22:23:53;15.60;41.00
24636;DHT22;12772;49.794;10.024;2023-04-21T22:27:56;15.60;41.30
24636;DHT22;12772;49.794;10.024;2023-04-21T22:31:58;15.50;41.40
24636;DHT22;12772;49.794;10.024;2023-04-21T22:36:01;15.30;41.60
24636;DHT22;12772;49.794;10.024;2023-04-21T22:40:05;15.30;41.80
24636;DHT22;12772;49.794;10.024;2023-04-21T22:44:08;15.20;42.00
24636;DHT22;12772;49.794;10.024;2023-04-21T22:48:10;15.10;42.20
24636;DHT22;12772;49.794;10.024;2023-04-21T22:52:13;15.00;42.60
24636;DHT22;12772;49.794;10.024;2023-04-21T22:56:16;14.90;42.80
24636;DHT22;12772;49.794;10.024;2023-04-21T23:00:18;14.80;43.00
24636;DHT22;12772;49.794;10.024;2023-04-21T23:04:20;14.70;43.20
24636;DHT22;12772;49.794;10.024;2023-04-21T23:08:22;14.70;43.30
24636;DHT22;12772;49.794;10.024;2023-04-21T23:12:24;14.70;43.70
24636;DHT22;12772;49.794;10.024;2023-04-21T23:16:26;14.60;43.80
24636;DHT22;12772;49.794;10.024;2023-04-21T23:20:28;14.70;44.20
24636;DHT22;12772;49.794;10.024;2023-04-21T23:24:31;14.70;44.30
24636;DHT22;12772;49.794;10.024;2023-04-21T23:28:33;14.70;44.30
24636;DHT22;12772;49.794;10.024;2023-04-21T23:32:35;14.60;44.20
24636;DHT22;12772;49.794;10.024;2023-04-21T23:36:37;14.60;44.30
24636;DHT22;12772;49.794;10.024;2023-04-21T23:40:39;14.60;44.50
24636;DHT22;12772;49.794;10.024;2023-04-21T23:44:41;14.60;44.60
24636;DHT22;12772;49.794;10.024;2023-04-21T23:48:44;14.60;44.70
24636;DHT22;12772;49.794;10.024;2023-04-21T23:52:46;14.60;44.80
24636;DHT22;12772;49.794;10.024;2023-04-21T23:56:48;14.50;44.80
